sensor_id;sensor_type;location;lat;lon;timestamp;temperature;humidity
68251;DHT22;55066;51.560;4.642;2022-07-22T00:02:24;16.36;68.61
68251;DHT22;55066;51.560;4.642;2022-07-22T00:04:49;16.35;68.66
68251;DHT22;55066;51.560;4.642;2022-07-22T00:07:15;16.28;69.45
68251;DHT22;55066;51.560;4.642;2022-07-22T00:09:40;16.19;69.63
68251;DHT22;55066;51.560;4.642;2022-07-22T00:12:06;16.11;69.18
68251;DHT22;55066;51.560;4.642;2022-07-22T00:14:32;16.28;68.55
68251;DHT22;55066;51.560;4.642;2022-07-22T00:16:57;16.33;69.54
68251;DHT22;55066;51.560;4.642;2022-07-22T00:19:23;16.32;68.27
68251;DHT22;55066;51.560;4.642;2022-07-22T00:21:50;16.24;68.64
68251;DHT22;55066;51.560;4.642;2022-07-22T00:24:15;16.18;68.51
68251;DHT22;55066;51.560;4.642;2022-07-22T00:26:41;16.05;68.89
68251;DHT22;55066;51.560;4.642;2022-07-22T00:29:06;16.08;68.79
68251;DHT22;55066;51.560;4.642;2022-07-22T00:31:32;16.12;68.66
68251;DHT22;55066;51.560;4.642;2022-07-22T00:33:59;16.07;68.63
68251;DHT22;55066;51.560;4.642;2022-07-22T00:36:27;15.97;68.86
68251;DHT22;55066;51.560;4.642;2022-07-22T00:38:52;15.90;68.95
68251;DHT22;55066;51.560;4.642;2022-07-22T00:41:17;15.91;68.96
68251;DHT22;55066;51.560;4.642;2022-07-22T00:44:02;15.86;70.66
68251;DHT22;55066;51.560;4.642;2022-07-22T00:46:29;15.78;69.16
68251;DHT22;55066;51.560;4.642;2022-07-22T00:48:55;15.78;68.99
68251;DHT22;55066;51.560;4.642;2022-07-22T00:51:23;15.80;68.88
68251;DHT22;55066;51.560;4.642;2022-07-22T00:53:50;15.70;69.98
68251;DHT22;55066;51.560;4.642;2022-07-22T00:56:16;15.64;69.27
68251;DHT22;55066;51.560;4.642;2022-07-22T00:58:43;15.67;68.92
68251;DHT22;55066;51.560;4.642;2022-07-22T01:01:10;15.66;69.04
68251;DHT22;55066;51.560;4.642;2022-07-22T01:03:36;15.61;68.94
68251;DHT22;55066;51.560;4.642;2022-07-22T01:06:03;15.59;69.10
68251;DHT22;55066;51.560;4.642;2022-07-22T01:08:28;15.53;69.12
68251;DHT22;55066;51.560;4.642;2022-07-22T01:10:54;15.54;68.99
68251;DHT22;55066;51.560;4.642;2022-07-22T01:13:19;15.50;69.19
68251;DHT22;55066;51.560;4.642;2022-07-22T01:15:45;15.44;69.21
68251;DHT22;55066;51.560;4.642;2022-07-22T01:18:10;15.40;69.29
68251;DHT22;55066;51.560;4.642;2022-07-22T01:20:36;15.39;69.39
68251;DHT22;55066;51.560;4.642;2022-07-22T01:23:02;15.39;69.45
68251;DHT22;55066;51.560;4.642;2022-07-22T01:25:28;15.31;69.36
68251;DHT22;55066;51.560;4.642;2022-07-22T01:27:54;15.29;69.67
68251;DHT22;55066;51.560;4.642;2022-07-22T01:30:19;15.21;70.60
68251;DHT22;55066;51.560;4.642;2022-07-22T01:32:45;14.99;69.99
68251;DHT22;55066;51.560;4.642;2022-07-22T01:35:10;15.12;69.97
68251;DHT22;55066;51.560;4.642;2022-07-22T01:37:36;15.14;69.94
68251;DHT22;55066;51.560;4.642;2022-07-22T01:40:03;15.08;69.97
68251;DHT22;55066;51.560;4.642;2022-07-22T01:42:29;15.22;69.86
68251;DHT22;55066;51.560;4.642;2022-07-22T01:44:54;15.19;69.33
68251;DHT22;55066;51.560;4.642;2022-07-22T01:47:19;15.28;69.02
68251;DHT22;55066;51.560;4.642;2022-07-22T01:49:45;15.15;70.12
68251;DHT22;55066;51.560;4.642;2022-07-22T01:52:10;15.19;69.14
68251;DHT22;55066;51.560;4.642;2022-07-22T01:54:36;15.21;69.38
68251;DHT22;55066;51.560;4.642;2022-07-22T01:57:02;15.09;69.59
68251;DHT22;55066;51.560;4.642;2022-07-22T01:59:27;14.96;69.92
68251;DHT22;55066;51.560;4.642;2022-07-22T02:01:54;15.14;69.29
68251;DHT22;55066;51.560;4.642;2022-07-22T02:04:19;15.18;68.85
68251;DHT22;55066;51.560;4.642;2022-07-22T02:06:44;15.14;68.98
68251;DHT22;55066;51.560;4.642;2022-07-22T02:09:10;15.05;69.28
68251;DHT22;55066;51.560;4.642;2022-07-22T02:11:40;14.99;69.83
68251;DHT22;55066;51.560;4.642;2022-07-22T02:14:06;14.94;69.67
68251;DHT22;55066;51.560;4.642;2022-07-22T02:16:33;14.87;69.79
68251;DHT22;55066;51.560;4.642;2022-07-22T02:18:58;15.01;69.05
68251;DHT22;55066;51.560;4.642;2022-07-22T02:21:23;14.99;69.26
68251;DHT22;55066;51.560;4.642;2022-07-22T02:23:53;14.78;70.16
68251;DHT22;55066;51.560;4.642;2022-07-22T02:26:18;14.84;69.24
68251;DHT22;55066;51.560;4.642;2022-07-22T02:28:44;14.89;69.42
68251;DHT22;55066;51.560;4.642;2022-07-22T02:31:10;14.91;69.05
68251;DHT22;55066;51.560;4.642;2022-07-22T02:33:37;14.88;69.12
68251;DHT22;55066;51.560;4.642;2022-07-22T02:36:03;14.83;69.21
68251;DHT22;55066;51.560;4.642;2022-07-22T02:38:28;14.84;69.00
68251;DHT22;55066;51.560;4.642;2022-07-22T02:40:53;14.73;69.22
68251;DHT22;55066;51.560;4.642;2022-07-22T02:43:19;14.73;69.27
68251;DHT22;55066;51.560;4.642;2022-07-22T02:45:45;14.74;69.05
68251;DHT22;55066;51.560;4.642;2022-07-22T02:48:10;14.74;68.97
68251;DHT22;55066;51.560;4.642;2022-07-22T02:50:36;14.73;68.89
68251;DHT22;55066;51.560;4.642;2022-07-22T02:53:03;14.63;69.73
68251;DHT22;55066;51.560;4.642;2022-07-22T02:55:33;14.57;69.33
68251;DHT22;55066;51.560;4.642;2022-07-22T02:58:05;14.51;69.56
68251;DHT22;55066;51.560;4.642;2022-07-22T03:00:31;14.51;69.27
68251;DHT22;55066;51.560;4.642;2022-07-22T03:02:56;14.51;69.30
68251;DHT22;55066;51.560;4.642;2022-07-22T03:05:22;14.55;69.15
68251;DHT22;55066;51.560;4.642;2022-07-22T03:07:52;14.47;69.24
68251;DHT22;55066;51.560;4.642;2022-07-22T03:10:17;14.44;69.30
68251;DHT22;55066;51.560;4.642;2022-07-22T03:12:42;14.41;69.41
68251;DHT22;55066;51.560;4.642;2022-07-22T03:15:08;14.43;69.29
68251;DHT22;55066;51.560;4.642;2022-07-22T03:17:36;14.46;69.22
68251;DHT22;55066;51.560;4.642;2022-07-22T03:20:05;14.41;69.32
68251;DHT22;55066;51.560;4.642;2022-07-22T03:22:31;14.36;69.33
68251;DHT22;55066;51.560;4.642;2022-07-22T03:24:56;14.34;69.70
68251;DHT22;55066;51.560;4.642;2022-07-22T03:27:22;14.33;69.42
68251;DHT22;55066;51.560;4.642;2022-07-22T03:29:48;14.34;69.29
68251;DHT22;55066;51.560;4.642;2022-07-22T03:32:14;14.32;70.80
68251;DHT22;55066;51.560;4.642;2022-07-22T03:34:45;14.16;69.78
68251;DHT22;55066;51.560;4.642;2022-07-22T03:37:10;14.13;69.73
68251;DHT22;55066;51.560;4.642;2022-07-22T03:39:36;14.19;70.39
68251;DHT22;55066;51.560;4.642;2022-07-22T03:42:02;14.19;69.43
68251;DHT22;55066;51.560;4.642;2022-07-22T03:44:30;14.23;69.28
68251;DHT22;55066;51.560;4.642;2022-07-22T03:46:55;14.19;69.74
68251;DHT22;55066;51.560;4.642;2022-07-22T03:49:21;14.22;69.39
68251;DHT22;55066;51.560;4.642;2022-07-22T03:51:46;14.16;69.39
68251;DHT22;55066;51.560;4.642;2022-07-22T03:54:11;14.18;70.22
68251;DHT22;55066;51.560;4.642;2022-07-22T03:56:40;14.16;69.47
68251;DHT22;55066;51.560;4.642;2022-07-22T03:59:05;14.19;70.16
68251;DHT22;55066;51.560;4.642;2022-07-22T04:01:31;14.30;68.79
68251;DHT22;55066;51.560;4.642;2022-07-22T04:03:57;14.28;68.84
68251;DHT22;55066;51.560;4.642;2022-07-22T04:06:29;14.39;68.60
68251;DHT22;55066;51.560;4.642;2022-07-22T04:09:03;14.56;68.04
68251;DHT22;55066;51.560;4.642;2022-07-22T04:11:28;14.36;69.86
68251;DHT22;55066;51.560;4.642;2022-07-22T04:13:54;14.49;69.43
68251;DHT22;55066;51.560;4.642;2022-07-22T04:16:19;14.43;69.57
68251;DHT22;55066;51.560;4.642;2022-07-22T04:18:54;14.34;72.76
68251;DHT22;55066;51.560;4.642;2022-07-22T04:21:34;14.39;71.18
68251;DHT22;55066;51.560;4.642;2022-07-22T04:24:05;14.59;68.56
68251;DHT22;55066;51.560;4.642;2022-07-22T04:26:31;14.59;69.76
68251;DHT22;55066;51.560;4.642;2022-07-22T04:28:57;14.59;69.99
68251;DHT22;55066;51.560;4.642;2022-07-22T04:31:23;14.61;70.84
68251;DHT22;55066;51.560;4.642;2022-07-22T04:33:54;14.59;71.94
68251;DHT22;55066;51.560;4.642;2022-07-22T04:36:20;14.67;72.00
68251;DHT22;55066;51.560;4.642;2022-07-22T04:38:46;14.91;70.64
68251;DHT22;55066;51.560;4.642;2022-07-22T04:41:12;14.99;75.57
68251;DHT22;55066;51.560;4.642;2022-07-22T04:43:37;14.99;72.79
68251;DHT22;55066;51.560;4.642;2022-07-22T04:46:04;15.02;75.76
68251;DHT22;55066;51.560;4.642;2022-07-22T04:48:32;15.08;69.88
68251;DHT22;55066;51.560;4.642;2022-07-22T04:51:02;15.16;69.24
68251;DHT22;55066;51.560;4.642;2022-07-22T04:53:29;15.22;73.42
68251;DHT22;55066;51.560;4.642;2022-07-22T04:55:54;15.35;72.61
68251;DHT22;55066;51.560;4.642;2022-07-22T04:58:20;15.35;71.59
68251;DHT22;55066;51.560;4.642;2022-07-22T05:00:47;15.46;70.38
68251;DHT22;55066;51.560;4.642;2022-07-22T05:03:13;15.64;69.37
68251;DHT22;55066;51.560;4.642;2022-07-22T05:05:40;15.78;71.94
68251;DHT22;55066;51.560;4.642;2022-07-22T05:08:05;15.83;77.68
68251;DHT22;55066;51.560;4.642;2022-07-22T05:10:32;15.81;71.63
68251;DHT22;55066;51.560;4.642;2022-07-22T05:12:58;15.80;77.77
68251;DHT22;55066;51.560;4.642;2022-07-22T05:15:25;15.77;76.73
68251;DHT22;55066;51.560;4.642;2022-07-22T05:17:50;15.88;73.22
68251;DHT22;55066;51.560;4.642;2022-07-22T05:20:22;16.12;68.48
68251;DHT22;55066;51.560;4.642;2022-07-22T05:22:47;16.24;77.73
68251;DHT22;55066;51.560;4.642;2022-07-22T05:25:22;16.18;81.62
68251;DHT22;55066;51.560;4.642;2022-07-22T05:27:52;16.18;70.56
68251;DHT22;55066;51.560;4.642;2022-07-22T05:30:21;16.32;71.59
68251;DHT22;55066;51.560;4.642;2022-07-22T05:32:46;16.41;76.53
68251;DHT22;55066;51.560;4.642;2022-07-22T05:35:13;16.60;73.44
68251;DHT22;55066;51.560;4.642;2022-07-22T05:37:38;16.88;74.24
68251;DHT22;55066;51.560;4.642;2022-07-22T05:40:04;16.85;69.27
68251;DHT22;55066;51.560;4.642;2022-07-22T05:42:30;16.99;66.94
68251;DHT22;55066;51.560;4.642;2022-07-22T05:44:55;17.08;71.08
68251;DHT22;55066;51.560;4.642;2022-07-22T05:47:21;17.15;68.55
68251;DHT22;55066;51.560;4.642;2022-07-22T05:49:47;17.19;71.30
68251;DHT22;55066;51.560;4.642;2022-07-22T05:52:13;17.27;69.86
68251;DHT22;55066;51.560;4.642;2022-07-22T05:54:40;17.38;66.44
68251;DHT22;55066;51.560;4.642;2022-07-22T05:57:06;17.39;75.94
68251;DHT22;55066;51.560;4.642;2022-07-22T05:59:35;17.56;67.05
68251;DHT22;55066;51.560;4.642;2022-07-22T06:02:01;17.67;76.83
68251;DHT22;55066;51.560;4.642;2022-07-22T06:04:43;17.76;77.48
68251;DHT22;55066;51.560;4.642;2022-07-22T06:07:10;17.66;79.91
68251;DHT22;55066;51.560;4.642;2022-07-22T06:09:36;17.57;80.51
68251;DHT22;55066;51.560;4.642;2022-07-22T06:12:01;17.80;70.78
68251;DHT22;55066;51.560;4.642;2022-07-22T06:14:28;18.03;79.47
68251;DHT22;55066;51.560;4.642;2022-07-22T06:16:54;17.93;79.12
68251;DHT22;55066;51.560;4.642;2022-07-22T06:19:20;18.08;71.90
68251;DHT22;55066;51.560;4.642;2022-07-22T06:21:46;18.13;77.44
68251;DHT22;55066;51.560;4.642;2022-07-22T06:24:13;18.37;73.59
68251;DHT22;55066;51.560;4.642;2022-07-22T06:26:39;18.65;69.51
68251;DHT22;55066;51.560;4.642;2022-07-22T06:29:04;18.83;73.66
68251;DHT22;55066;51.560;4.642;2022-07-22T06:31:29;18.93;75.19
68251;DHT22;55066;51.560;4.642;2022-07-22T06:33:55;19.27;75.32
68251;DHT22;55066;51.560;4.642;2022-07-22T06:36:24;19.89;64.51
68251;DHT22;55066;51.560;4.642;2022-07-22T06:38:49;19.73;73.57
68251;DHT22;55066;51.560;4.642;2022-07-22T06:41:30;19.36;73.44
68251;DHT22;55066;51.560;4.642;2022-07-22T06:44:05;19.31;72.32
68251;DHT22;55066;51.560;4.642;2022-07-22T06:46:56;19.25;74.02
68251;DHT22;55066;51.560;4.642;2022-07-22T06:49:21;19.69;73.29
68251;DHT22;55066;51.560;4.642;2022-07-22T06:51:47;19.85;68.31
68251;DHT22;55066;51.560;4.642;2022-07-22T06:54:12;20.37;69.11
68251;DHT22;55066;51.560;4.642;2022-07-22T06:56:38;20.03;71.87
68251;DHT22;55066;51.560;4.642;2022-07-22T06:59:04;20.30;67.67
68251;DHT22;55066;51.560;4.642;2022-07-22T07:01:30;20.14;70.77
68251;DHT22;55066;51.560;4.642;2022-07-22T07:03:59;20.10;71.87
68251;DHT22;55066;51.560;4.642;2022-07-22T07:06:24;20.43;70.51
68251;DHT22;55066;51.560;4.642;2022-07-22T07:09:08;20.64;68.04
68251;DHT22;55066;51.560;4.642;2022-07-22T07:11:35;20.44;68.89
68251;DHT22;55066;51.560;4.642;2022-07-22T07:14:04;20.72;65.42
68251;DHT22;55066;51.560;4.642;2022-07-22T07:16:30;20.92;67.38
68251;DHT22;55066;51.560;4.642;2022-07-22T07:18:56;21.04;67.31
68251;DHT22;55066;51.560;4.642;2022-07-22T07:21:21;20.78;66.23
68251;DHT22;55066;51.560;4.642;2022-07-22T07:23:47;21.07;67.97
68251;DHT22;55066;51.560;4.642;2022-07-22T07:26:13;21.37;62.49
68251;DHT22;55066;51.560;4.642;2022-07-22T07:28:39;21.73;66.50
68251;DHT22;55066;51.560;4.642;2022-07-22T07:31:13;22.50;60.72
68251;DHT22;55066;51.560;4.642;2022-07-22T07:33:39;22.09;62.88
68251;DHT22;55066;51.560;4.642;2022-07-22T07:36:05;22.13;62.64
68251;DHT22;55066;51.560;4.642;2022-07-22T07:38:36;21.68;65.17
68251;DHT22;55066;51.560;4.642;2022-07-22T07:41:04;21.82;64.97
68251;DHT22;55066;51.560;4.642;2022-07-22T07:43:29;21.79;64.60
68251;DHT22;55066;51.560;4.642;2022-07-22T07:45:55;22.08;64.03
68251;DHT22;55066;51.560;4.642;2022-07-22T07:48:20;21.77;62.42
68251;DHT22;55066;51.560;4.642;2022-07-22T07:50:46;20.98;64.06
68251;DHT22;55066;51.560;4.642;2022-07-22T07:53:15;21.31;63.75
68251;DHT22;55066;51.560;4.642;2022-07-22T07:55:42;22.58;61.74
68251;DHT22;55066;51.560;4.642;2022-07-22T07:58:07;22.30;62.30
68251;DHT22;55066;51.560;4.642;2022-07-22T08:00:34;23.53;60.45
68251;DHT22;55066;51.560;4.642;2022-07-22T08:03:02;23.39;59.79
68251;DHT22;55066;51.560;4.642;2022-07-22T08:05:29;22.37;61.58
68251;DHT22;55066;51.560;4.642;2022-07-22T08:07:56;23.02;61.34
68251;DHT22;55066;51.560;4.642;2022-07-22T08:10:22;23.30;59.48
68251;DHT22;55066;51.560;4.642;2022-07-22T08:12:57;23.42;59.26
68251;DHT22;55066;51.560;4.642;2022-07-22T08:15:44;21.92;62.59
68251;DHT22;55066;51.560;4.642;2022-07-22T08:18:16;22.33;61.54
68251;DHT22;55066;51.560;4.642;2022-07-22T08:20:45;22.50;62.51
68251;DHT22;55066;51.560;4.642;2022-07-22T08:23:11;22.56;61.28
68251;DHT22;55066;51.560;4.642;2022-07-22T08:25:38;22.78;60.18
68251;DHT22;55066;51.560;4.642;2022-07-22T08:28:04;24.09;58.47
68251;DHT22;55066;51.560;4.642;2022-07-22T08:30:30;23.30;59.24
68251;DHT22;55066;51.560;4.642;2022-07-22T08:32:56;23.42;60.81
68251;DHT22;55066;51.560;4.642;2022-07-22T08:35:22;23.71;59.77
68251;DHT22;55066;51.560;4.642;2022-07-22T08:37:48;23.05;59.95
68251;DHT22;55066;51.560;4.642;2022-07-22T08:40:15;23.05;60.10
68251;DHT22;55066;51.560;4.642;2022-07-22T08:42:42;22.90;62.42
68251;DHT22;55066;51.560;4.642;2022-07-22T08:45:09;22.46;60.39
68251;DHT22;55066;51.560;4.642;2022-07-22T08:47:35;22.37;62.21
68251;DHT22;55066;51.560;4.642;2022-07-22T08:50:13;23.54;61.36
68251;DHT22;55066;51.560;4.642;2022-07-22T08:52:48;23.98;59.75
68251;DHT22;55066;51.560;4.642;2022-07-22T08:55:14;24.33;57.57
68251;DHT22;55066;51.560;4.642;2022-07-22T08:57:45;25.21;57.36
68251;DHT22;55066;51.560;4.642;2022-07-22T09:00:13;22.90;59.67
68251;DHT22;55066;51.560;4.642;2022-07-22T09:02:40;22.49;63.05
68251;DHT22;55066;51.560;4.642;2022-07-22T09:05:09;23.01;62.22
68251;DHT22;55066;51.560;4.642;2022-07-22T09:07:39;22.99;61.81
68251;DHT22;55066;51.560;4.642;2022-07-22T09:10:17;23.08;58.99
68251;DHT22;55066;51.560;4.642;2022-07-22T09:13:05;23.42;58.54
68251;DHT22;55066;51.560;4.642;2022-07-22T09:15:53;24.42;58.98
68251;DHT22;55066;51.560;4.642;2022-07-22T09:18:51;24.09;58.26
68251;DHT22;55066;51.560;4.642;2022-07-22T09:21:30;24.76;59.11
68251;DHT22;55066;51.560;4.642;2022-07-22T09:24:08;25.79;55.37
68251;DHT22;55066;51.560;4.642;2022-07-22T09:26:36;25.89;54.15
68251;DHT22;55066;51.560;4.642;2022-07-22T09:29:20;26.10;53.55
68251;DHT22;55066;51.560;4.642;2022-07-22T09:32:06;25.79;54.98
68251;DHT22;55066;51.560;4.642;2022-07-22T09:35:03;24.84;56.36
68251;DHT22;55066;51.560;4.642;2022-07-22T09:37:53;26.10;56.87
68251;DHT22;55066;51.560;4.642;2022-07-22T09:40:24;23.91;54.86
68251;DHT22;55066;51.560;4.642;2022-07-22T09:42:53;26.34;54.57
68251;DHT22;55066;51.560;4.642;2022-07-22T09:45:20;26.86;51.24
68251;DHT22;55066;51.560;4.642;2022-07-22T09:47:47;24.72;54.81
68251;DHT22;55066;51.560;4.642;2022-07-22T09:50:33;24.00;56.69
68251;DHT22;55066;51.560;4.642;2022-07-22T09:53:16;25.77;53.99
68251;DHT22;55066;51.560;4.642;2022-07-22T09:55:53;26.07;56.86
68251;DHT22;55066;51.560;4.642;2022-07-22T09:58:18;26.53;54.00
68251;DHT22;55066;51.560;4.642;2022-07-22T10:00:44;26.78;56.32
68251;DHT22;55066;51.560;4.642;2022-07-22T10:03:18;26.07;54.04
68251;DHT22;55066;51.560;4.642;2022-07-22T10:05:47;25.48;55.68
68251;DHT22;55066;51.560;4.642;2022-07-22T10:08:13;24.80;54.23
68251;DHT22;55066;51.560;4.642;2022-07-22T10:10:39;24.80;57.10
68251;DHT22;55066;51.560;4.642;2022-07-22T10:13:07;25.17;54.01
68251;DHT22;55066;51.560;4.642;2022-07-22T10:15:34;25.90;54.86
68251;DHT22;55066;51.560;4.642;2022-07-22T10:18:03;26.83;57.18
68251;DHT22;55066;51.560;4.642;2022-07-22T10:20:33;27.86;50.91
68251;DHT22;55066;51.560;4.642;2022-07-22T10:23:01;27.07;56.17
68251;DHT22;55066;51.560;4.642;2022-07-22T10:25:29;27.58;54.83
68251;DHT22;55066;51.560;4.642;2022-07-22T10:28:04;27.45;54.75
68251;DHT22;55066;51.560;4.642;2022-07-22T10:30:36;26.69;53.61
68251;DHT22;55066;51.560;4.642;2022-07-22T10:33:11;26.18;57.72
68251;DHT22;55066;51.560;4.642;2022-07-22T10:38:11;26.79;55.66
68251;DHT22;55066;51.560;4.642;2022-07-22T10:43:28;25.27;57.01
68251;DHT22;55066;51.560;4.642;2022-07-22T10:45:58;26.38;56.80
68251;DHT22;55066;51.560;4.642;2022-07-22T10:48:43;26.60;55.66
68251;DHT22;55066;51.560;4.642;2022-07-22T10:53:57;26.53;57.78
68251;DHT22;55066;51.560;4.642;2022-07-22T10:56:28;26.60;51.75
68251;DHT22;55066;51.560;4.642;2022-07-22T10:59:10;27.08;53.45
68251;DHT22;55066;51.560;4.642;2022-07-22T11:01:43;26.56;54.06
68251;DHT22;55066;51.560;4.642;2022-07-22T11:06:38;29.29;52.37
68251;DHT22;55066;51.560;4.642;2022-07-22T11:09:06;29.17;52.99
68251;DHT22;55066;51.560;4.642;2022-07-22T11:11:48;30.04;51.29
68251;DHT22;55066;51.560;4.642;2022-07-22T11:14:18;30.85;50.88
68251;DHT22;55066;51.560;4.642;2022-07-22T11:16:46;30.26;52.12
68251;DHT22;55066;51.560;4.642;2022-07-22T11:19:12;29.64;54.37
68251;DHT22;55066;51.560;4.642;2022-07-22T11:21:38;28.55;51.76
68251;DHT22;55066;51.560;4.642;2022-07-22T11:24:05;29.23;53.72
68251;DHT22;55066;51.560;4.642;2022-07-22T11:26:46;30.23;52.01
68251;DHT22;55066;51.560;4.642;2022-07-22T11:29:35;29.03;54.64
68251;DHT22;55066;51.560;4.642;2022-07-22T11:32:03;29.12;54.23
68251;DHT22;55066;51.560;4.642;2022-07-22T11:34:30;29.60;54.58
68251;DHT22;55066;51.560;4.642;2022-07-22T11:36:56;28.91;50.61
68251;DHT22;55066;51.560;4.642;2022-07-22T11:39:27;28.18;51.31
68251;DHT22;55066;51.560;4.642;2022-07-22T11:41:55;27.63;49.39
68251;DHT22;55066;51.560;4.642;2022-07-22T11:44:25;27.68;49.39
68251;DHT22;55066;51.560;4.642;2022-07-22T11:46:51;26.80;50.95
68251;DHT22;55066;51.560;4.642;2022-07-22T11:49:19;26.32;53.75
68251;DHT22;55066;51.560;4.642;2022-07-22T11:51:44;29.27;56.30
68251;DHT22;55066;51.560;4.642;2022-07-22T11:54:10;29.37;50.44
68251;DHT22;55066;51.560;4.642;2022-07-22T11:56:36;28.34;55.39
68251;DHT22;55066;51.560;4.642;2022-07-22T11:59:03;25.96;53.14
68251;DHT22;55066;51.560;4.642;2022-07-22T12:01:34;26.49;57.42
68251;DHT22;55066;51.560;4.642;2022-07-22T12:04:06;27.55;54.20
68251;DHT22;55066;51.560;4.642;2022-07-22T12:06:33;27.34;58.02
68251;DHT22;55066;51.560;4.642;2022-07-22T12:09:04;27.14;51.63
68251;DHT22;55066;51.560;4.642;2022-07-22T12:11:30;27.96;58.43
68251;DHT22;55066;51.560;4.642;2022-07-22T12:13:59;27.70;48.73
68251;DHT22;55066;51.560;4.642;2022-07-22T12:16:30;28.61;54.96
68251;DHT22;55066;51.560;4.642;2022-07-22T12:19:01;29.36;54.88
68251;DHT22;55066;51.560;4.642;2022-07-22T12:21:29;29.27;49.82
68251;DHT22;55066;51.560;4.642;2022-07-22T12:24:00;29.08;49.26
68251;DHT22;55066;51.560;4.642;2022-07-22T12:26:48;30.29;51.27
68251;DHT22;55066;51.560;4.642;2022-07-22T12:29:20;28.34;47.58
68251;DHT22;55066;51.560;4.642;2022-07-22T12:31:52;27.89;50.32
68251;DHT22;55066;51.560;4.642;2022-07-22T12:34:38;28.30;52.27
68251;DHT22;55066;51.560;4.642;2022-07-22T12:37:24;28.40;48.86
68251;DHT22;55066;51.560;4.642;2022-07-22T12:42:32;28.94;54.66
68251;DHT22;55066;51.560;4.642;2022-07-22T12:45:15;29.91;51.46
68251;DHT22;55066;51.560;4.642;2022-07-22T12:47:52;29.99;50.48
68251;DHT22;55066;51.560;4.642;2022-07-22T12:50:28;29.65;47.59
68251;DHT22;55066;51.560;4.642;2022-07-22T12:53:05;28.76;48.20
68251;DHT22;55066;51.560;4.642;2022-07-22T12:55:36;28.20;50.53
68251;DHT22;55066;51.560;4.642;2022-07-22T12:58:03;28.26;54.35
68251;DHT22;55066;51.560;4.642;2022-07-22T13:00:32;28.71;47.23
68251;DHT22;55066;51.560;4.642;2022-07-22T13:02:58;27.34;53.26
68251;DHT22;55066;51.560;4.642;2022-07-22T13:05:25;28.28;54.44
68251;DHT22;55066;51.560;4.642;2022-07-22T13:07:51;28.88;50.12
68251;DHT22;55066;51.560;4.642;2022-07-22T13:10:19;27.77;50.17
68251;DHT22;55066;51.560;4.642;2022-07-22T13:12:45;29.34;52.44
68251;DHT22;55066;51.560;4.642;2022-07-22T13:15:10;29.33;51.91
68251;DHT22;55066;51.560;4.642;2022-07-22T13:17:36;29.74;49.87
68251;DHT22;55066;51.560;4.642;2022-07-22T13:20:03;29.75;46.89
68251;DHT22;55066;51.560;4.642;2022-07-22T13:22:29;29.53;51.32
68251;DHT22;55066;51.560;4.642;2022-07-22T13:24:54;29.57;51.27
68251;DHT22;55066;51.560;4.642;2022-07-22T13:27:20;28.64;53.19
68251;DHT22;55066;51.560;4.642;2022-07-22T13:29:45;29.29;51.95
68251;DHT22;55066;51.560;4.642;2022-07-22T13:32:11;26.96;49.32
68251;DHT22;55066;51.560;4.642;2022-07-22T13:34:36;26.38;55.19
68251;DHT22;55066;51.560;4.642;2022-07-22T13:37:02;27.48;51.76
68251;DHT22;55066;51.560;4.642;2022-07-22T13:39:27;28.37;53.57
68251;DHT22;55066;51.560;4.642;2022-07-22T13:41:53;29.70;50.53
68251;DHT22;55066;51.560;4.642;2022-07-22T13:44:18;30.29;49.01
68251;DHT22;55066;51.560;4.642;2022-07-22T13:46:44;29.13;51.38
68251;DHT22;55066;51.560;4.642;2022-07-22T13:49:11;26.35;52.08
68251;DHT22;55066;51.560;4.642;2022-07-22T13:51:36;26.52;56.27
68251;DHT22;55066;51.560;4.642;2022-07-22T13:54:02;27.20;55.46
68251;DHT22;55066;51.560;4.642;2022-07-22T13:56:28;28.83;51.28
68251;DHT22;55066;51.560;4.642;2022-07-22T13:58:53;27.77;49.22
68251;DHT22;55066;51.560;4.642;2022-07-22T14:01:18;27.40;54.67
68251;DHT22;55066;51.560;4.642;2022-07-22T14:03:44;28.54;53.10
68251;DHT22;55066;51.560;4.642;2022-07-22T14:06:09;29.09;49.16
68251;DHT22;55066;51.560;4.642;2022-07-22T14:08:35;29.71;48.91
68251;DHT22;55066;51.560;4.642;2022-07-22T14:11:01;29.61;49.97
68251;DHT22;55066;51.560;4.642;2022-07-22T14:13:27;29.09;50.36
68251;DHT22;55066;51.560;4.642;2022-07-22T14:15:54;28.13;48.05
68251;DHT22;55066;51.560;4.642;2022-07-22T14:18:19;27.17;55.20
68251;DHT22;55066;51.560;4.642;2022-07-22T14:20:44;28.33;54.55
68251;DHT22;55066;51.560;4.642;2022-07-22T14:23:10;26.76;55.63
68251;DHT22;55066;51.560;4.642;2022-07-22T14:25:39;28.51;52.70
68251;DHT22;55066;51.560;4.642;2022-07-22T14:28:06;29.22;50.88
68251;DHT22;55066;51.560;4.642;2022-07-22T14:30:33;29.55;50.09
68251;DHT22;55066;51.560;4.642;2022-07-22T14:33:00;29.37;50.69
68251;DHT22;55066;51.560;4.642;2022-07-22T14:35:25;26.99;51.49
68251;DHT22;55066;51.560;4.642;2022-07-22T14:37:50;26.89;53.96
68251;DHT22;55066;51.560;4.642;2022-07-22T14:40:16;26.83;51.54
68251;DHT22;55066;51.560;4.642;2022-07-22T14:42:42;25.96;54.19
68251;DHT22;55066;51.560;4.642;2022-07-22T14:45:07;25.04;54.64
68251;DHT22;55066;51.560;4.642;2022-07-22T14:47:35;26.87;55.42
68251;DHT22;55066;51.560;4.642;2022-07-22T14:50:02;28.55;50.28
68251;DHT22;55066;51.560;4.642;2022-07-22T14:52:27;29.55;50.05
68251;DHT22;55066;51.560;4.642;2022-07-22T14:54:52;28.48;47.89
68251;DHT22;55066;51.560;4.642;2022-07-22T14:57:18;28.62;50.41
68251;DHT22;55066;51.560;4.642;2022-07-22T14:59:43;28.50;48.14
68251;DHT22;55066;51.560;4.642;2022-07-22T15:02:09;29.17;49.06
68251;DHT22;55066;51.560;4.642;2022-07-22T15:04:34;30.08;48.86
68251;DHT22;55066;51.560;4.642;2022-07-22T15:06:59;30.46;48.26
68251;DHT22;55066;51.560;4.642;2022-07-22T15:09:27;30.06;47.62
68251;DHT22;55066;51.560;4.642;2022-07-22T15:11:53;27.97;49.82
68251;DHT22;55066;51.560;4.642;2022-07-22T15:14:19;28.41;51.52
68251;DHT22;55066;51.560;4.642;2022-07-22T15:16:44;26.99;51.44
68251;DHT22;55066;51.560;4.642;2022-07-22T15:19:10;27.51;52.50
68251;DHT22;55066;51.560;4.642;2022-07-22T15:21:35;28.43;52.20
68251;DHT22;55066;51.560;4.642;2022-07-22T15:24:00;27.40;50.62
68251;DHT22;55066;51.560;4.642;2022-07-22T15:26:26;27.79;53.85
68251;DHT22;55066;51.560;4.642;2022-07-22T15:28:51;28.61;52.50
68251;DHT22;55066;51.560;4.642;2022-07-22T15:31:18;27.65;50.47
68251;DHT22;55066;51.560;4.642;2022-07-22T15:33:44;25.53;53.87
68251;DHT22;55066;51.560;4.642;2022-07-22T15:36:09;25.92;54.00
68251;DHT22;55066;51.560;4.642;2022-07-22T15:38:36;28.20;53.08
68251;DHT22;55066;51.560;4.642;2022-07-22T15:41:03;27.69;52.05
68251;DHT22;55066;51.560;4.642;2022-07-22T15:43:29;28.64;50.88
68251;DHT22;55066;51.560;4.642;2022-07-22T15:45:54;28.69;51.45
68251;DHT22;55066;51.560;4.642;2022-07-22T15:48:20;29.13;50.38
68251;DHT22;55066;51.560;4.642;2022-07-22T15:50:45;28.82;50.57